createdAt,value
2014-07-04T00:00:58.871Z,21.1
2014-07-04T00:02:03.873Z,20.94
2014-07-04T00:03:08.860Z,20.89
2014-07-04T00:04:13.548Z,20.99
2014-07-04T00:05:18.222Z,20.97
2014-07-04T00:06:22.912Z,20.85
2014-07-04T00:07:27.617Z,20.84
2014-07-04T00:08:31.605Z,20.76
2014-07-04T00:09:36.592Z,20.66
2014-07-04T00:10:41.280Z,20.66
2014-07-04T00:11:45.970Z,20.79
2014-07-04T00:12:50.644Z,20.76
2014-07-04T00:13:55.350Z,21.06
2014-07-04T00:15:00.022Z,21.24
2014-07-04T00:16:04.712Z,21.03
2014-07-04T00:17:08.714Z,20.79
2014-07-04T00:18:13.388Z,20.77
2014-07-04T00:19:18.077Z,20.5
2014-07-04T00:20:22.751Z,20.34
2014-07-04T00:21:27.441Z,20.86
2014-07-04T00:22:32.429Z,21.1
2014-07-04T00:23:37.102Z,21.14
2014-07-04T00:24:41.791Z,20.85
2014-07-04T00:25:46.481Z,20.78
2014-07-04T00:26:51.170Z,20.79
2014-07-04T00:27:55.860Z,20.74
2014-07-04T00:29:00.534Z,20.8
2014-07-04T00:30:05.223Z,20.41
2014-07-04T00:31:09.913Z,20.32
2014-07-04T00:32:14.587Z,20.38
2014-07-04T00:33:19.276Z,20.36
2014-07-04T00:34:23.966Z,20.34
2014-07-04T00:35:28.655Z,20.27
2014-07-04T00:36:33.329Z,20.73
2014-07-04T00:37:38.021Z,20.56
2014-07-04T00:38:42.694Z,20.38
2014-07-04T00:39:47.384Z,20.37
2014-07-04T00:40:52.120Z,20.3
2014-07-04T00:41:57.090Z,20.3
2014-07-04T00:43:02.076Z,20.18
2014-07-04T00:44:06.766Z,20.13
2014-07-04T00:45:11.752Z,20.18
2014-07-04T00:46:16.426Z,20.19
2014-07-04T00:47:21.116Z,20.2
2014-07-04T00:48:25.805Z,20.26
2014-07-04T00:49:30.792Z,20.3
2014-07-04T00:50:35.780Z,20.53
2014-07-04T00:51:40.454Z,20.16
2014-07-04T00:52:45.440Z,20.08
2014-07-04T00:53:50.427Z,20.11
2014-07-04T00:54:55.413Z,20.02
2014-07-04T00:56:00.087Z,20.04
2014-07-04T00:57:04.776Z,20.16
2014-07-04T00:58:09.763Z,20.43
2014-07-04T00:59:14.452Z,20.63
2014-07-04T01:00:19.423Z,20.51
2014-07-04T01:01:24.111Z,20.47
2014-07-04T01:02:28.801Z,20.64
2014-07-04T01:03:33.773Z,20.2
2014-07-04T01:04:38.461Z,20.25
2014-07-04T01:05:43.152Z,20.52
2014-07-04T01:06:48.121Z,20.63
2014-07-04T01:07:52.812Z,20.06
2014-07-04T01:08:57.486Z,19.97
2014-07-04T01:10:02.176Z,19.86
2014-07-04T01:11:06.866Z,19.82
2014-07-04T01:12:10.867Z,19.82
2014-07-04T01:13:15.838Z,19.84
2014-07-04T01:14:20.527Z,19.78
2014-07-04T01:15:25.217Z,19.74
2014-07-04T01:16:29.906Z,19.6
2014-07-04T01:17:34.580Z,19.73
2014-07-04T01:18:39.271Z,19.72
2014-07-04T01:19:43.944Z,19.78
2014-07-04T01:20:48.634Z,19.78
2014-07-04T01:21:53.323Z,19.73
2014-07-04T01:22:58.013Z,19.85
2014-07-04T01:24:02.687Z,19.78
2014-07-04T01:25:07.673Z,19.89
2014-07-04T01:26:12.363Z,20.03
2014-07-04T01:27:17.036Z,20.08
2014-07-04T01:28:21.726Z,19.96
2014-07-04T01:29:26.452Z,19.89
2014-07-04T01:30:31.165Z,20.12
2014-07-04T01:31:35.895Z,20.42
2014-07-04T01:32:40.664Z,20.49
2014-07-04T01:33:45.664Z,20.16
2014-07-04T01:34:50.353Z,20.04
2014-07-04T01:35:55.353Z,19.63
2014-07-04T01:37:00.056Z,19.42
2014-07-04T01:38:05.057Z,19.58
2014-07-04T01:39:10.048Z,19.5
2014-07-04T01:40:15.024Z,19.54
2014-07-04T01:41:19.718Z,19.92
2014-07-04T01:42:24.413Z,19.79
2014-07-04T01:43:29.092Z,20.15
2014-07-04T01:44:33.096Z,19.9
2014-07-04T01:45:38.084Z,19.81
2014-07-04T01:46:42.763Z,19.99
2014-07-04T01:47:47.751Z,20.1
2014-07-04T01:48:52.739Z,19.48
2014-07-04T01:49:57.414Z,19.44
2014-07-04T01:51:02.103Z,19.39
2014-07-04T01:52:06.794Z,19.61
2014-07-04T01:53:11.468Z,19.76
2014-07-04T01:54:16.157Z,19.9
2014-07-04T01:55:20.847Z,19.81
2014-07-04T01:56:25.521Z,19.96
2014-07-04T01:57:29.523Z,19.91
2014-07-04T01:58:34.213Z,19.97
2014-07-04T01:59:38.886Z,19.86
2014-07-04T02:00:43.575Z,19.5
2014-07-04T02:01:48.562Z,19.41
2014-07-04T02:02:53.237Z,19.21
2014-07-04T02:03:58.222Z,19.3
2014-07-04T02:05:02.896Z,19.25
2014-07-04T02:06:07.603Z,19.27
2014-07-04T02:07:12.277Z,19.34
2014-07-04T02:08:17.263Z,19.28
2014-07-04T02:09:21.953Z,19.33
2014-07-04T02:10:26.922Z,19.3
2014-07-04T02:11:31.613Z,19.29
2014-07-04T02:12:35.896Z,19.46
2014-07-04T02:13:40.586Z,19.54
2014-07-04T02:14:45.274Z,19.7
2014-07-04T02:15:49.948Z,19.7
2014-07-04T02:16:54.639Z,19.48
2014-07-04T02:17:59.312Z,19.68
2014-07-04T02:19:04.299Z,19.7
2014-07-04T02:20:08.974Z,19.18
2014-07-04T02:21:13.662Z,19.15
2014-07-04T02:22:18.650Z,19.49
2014-07-04T02:23:23.322Z,19.59
2014-07-04T02:24:28.012Z,19.63
2014-07-04T02:25:32.999Z,19.68
2014-07-04T02:26:37.970Z,19.2
2014-07-04T02:27:42.956Z,18.81
2014-07-04T02:28:47.645Z,19.17
2014-07-04T02:29:52.632Z,19.25
2014-07-04T02:30:57.306Z,19.55
2014-07-04T02:32:01.995Z,19.02
2014-07-04T02:33:06.981Z,19
2014-07-04T02:34:11.954Z,18.9
2014-07-04T02:35:16.643Z,18.98
2014-07-04T02:36:20.630Z,18.84
2014-07-04T02:37:25.319Z,18.8
2014-07-04T02:38:29.993Z,18.95
2014-07-04T02:39:34.682Z,19.24
2014-07-04T02:40:39.372Z,19.27
2014-07-04T02:41:44.046Z,19.28
2014-07-04T02:42:49.032Z,19.44
2014-07-04T02:43:53.721Z,19.32
2014-07-04T02:44:58.395Z,19.25
2014-07-04T02:46:03.381Z,19.3
2014-07-04T02:47:08.352Z,19.23
2014-07-04T02:48:13.340Z,19.04
2014-07-04T02:49:18.029Z,19.22
2014-07-04T02:50:22.704Z,19.17
2014-07-04T02:51:27.393Z,18.88
2014-07-04T02:52:32.378Z,18.7
2014-07-04T02:53:37.053Z,18.7
2014-07-04T02:54:41.742Z,18.75
2014-07-04T02:55:46.729Z,18.54
2014-07-04T02:56:51.402Z,18.82
2014-07-04T02:57:56.092Z,18.92
2014-07-04T02:59:00.781Z,18.34
2014-07-04T03:00:05.752Z,18.75
2014-07-04T03:01:10.441Z,18.36
2014-07-04T03:02:15.133Z,18.45
2014-07-04T03:03:19.822Z,18.49
2014-07-04T03:04:24.809Z,18.52
2014-07-04T03:05:29.483Z,18.77
2014-07-04T03:06:34.172Z,18.9
2014-07-04T03:07:38.862Z,18.93
2014-07-04T03:08:43.535Z,18.73
2014-07-04T03:09:48.224Z,18.15
2014-07-04T03:10:53.210Z,18.21
2014-07-04T03:11:57.884Z,18.42
2014-07-04T03:13:02.574Z,18.84
2014-07-04T03:14:07.544Z,18.63
2014-07-04T03:15:12.234Z,18.53
2014-07-04T03:16:16.910Z,18.65
2014-07-04T03:17:20.911Z,18.8
2014-07-04T03:18:25.585Z,18.83
2014-07-04T03:19:30.274Z,19.1
2014-07-04T03:20:35.262Z,19.19
2014-07-04T03:21:40.247Z,19.11
2014-07-04T03:22:45.218Z,19.09
2014-07-04T03:23:49.908Z,19.09
2014-07-04T03:24:54.581Z,18.9
2014-07-04T03:25:59.271Z,18.88
2014-07-04T03:27:03.960Z,18.81
2014-07-04T03:28:08.634Z,18.76
2014-07-04T03:29:13.620Z,18.84
2014-07-04T03:30:18.311Z,18.78
2014-07-04T03:31:23.298Z,18.88
2014-07-04T03:32:28.268Z,18.81
2014-07-04T03:33:33.254Z,18.9
2014-07-04T03:34:37.929Z,18.96
2014-07-04T03:35:42.618Z,18.5
2014-07-04T03:36:47.293Z,18.32
2014-07-04T03:37:51.982Z,18.48
2014-07-04T03:38:56.671Z,18.43
2014-07-04T03:40:01.344Z,18.69
2014-07-04T03:41:06.034Z,18.9
2014-07-04T03:42:11.005Z,18.93
2014-07-04T03:43:15.991Z,18.52
2014-07-04T03:44:20.683Z,18.36
2014-07-04T03:45:25.355Z,18.34
2014-07-04T03:46:30.045Z,18.32
2014-07-04T03:47:34.047Z,18.26
2014-07-04T03:48:39.018Z,18.33
2014-07-04T03:49:43.707Z,18.31
2014-07-04T03:50:48.397Z,18.32
2014-07-04T03:51:52.383Z,18.29
2014-07-04T03:52:57.073Z,18.34
2014-07-04T03:54:02.059Z,18.39
2014-07-04T03:55:06.732Z,18.39
2014-07-04T03:56:11.718Z,18.52
2014-07-04T03:57:16.392Z,18.64
2014-07-04T03:58:21.083Z,18.6
2014-07-04T03:59:25.757Z,18.56
2014-07-04T04:00:30.447Z,18.62
2014-07-04T04:01:35.136Z,18.72
2014-07-04T04:02:39.826Z,18.8
2014-07-04T04:03:44.501Z,18.68
2014-07-04T04:04:48.502Z,18.8
2014-07-04T04:05:53.192Z,19.03
2014-07-04T04:06:57.865Z,19.12
2014-07-04T04:08:03.148Z,18.92
2014-07-04T04:09:07.838Z,18.84
2014-07-04T04:10:12.511Z,19.02
2014-07-04T04:11:17.201Z,19.2
2014-07-04T04:12:22.172Z,18.74
2014-07-04T04:13:26.864Z,18.62
2014-07-04T04:14:31.553Z,18.59
2014-07-04T04:15:36.227Z,18.56
2014-07-04T04:16:40.916Z,18.86
2014-07-04T04:17:45.605Z,18.96
2014-07-04T04:18:50.280Z,19.13
2014-07-04T04:19:54.968Z,19.28
2014-07-04T04:20:59.642Z,19.22
2014-07-04T04:22:04.332Z,19.18
2014-07-04T04:23:09.006Z,18.86
2014-07-04T04:24:13.992Z,18.67
2014-07-04T04:25:18.681Z,18.84
2014-07-04T04:26:23.355Z,19.16
2014-07-04T04:27:28.045Z,19.25
2014-07-04T04:28:32.736Z,19.12
2014-07-04T04:29:37.409Z,19.15
2014-07-04T04:30:42.100Z,19.07
2014-07-04T04:31:47.085Z,19.14
2014-07-04T04:32:51.759Z,19.37
2014-07-04T04:33:56.448Z,19.48
2014-07-04T04:35:01.122Z,19.24
2014-07-04T04:36:06.109Z,19.08
2014-07-04T04:37:10.798Z,19.59
2014-07-04T04:38:15.786Z,19.51
2014-07-04T04:39:20.459Z,19.64
2014-07-04T04:40:25.148Z,19.72
2014-07-04T04:41:30.120Z,19.36
2014-07-04T04:42:34.808Z,19.3
2014-07-04T04:43:39.482Z,19.4
2014-07-04T04:44:44.173Z,19.33
2014-07-04T04:45:49.142Z,19.15
2014-07-04T04:46:53.832Z,19.18
2014-07-04T04:47:58.818Z,19.3
2014-07-04T04:49:03.494Z,19.38
2014-07-04T04:50:08.184Z,19.48
2014-07-04T04:51:12.873Z,19.67
2014-07-04T04:52:17.858Z,19.84
2014-07-04T04:53:22.846Z,20.18
2014-07-04T04:54:27.520Z,20.16
2014-07-04T04:55:32.506Z,20.21
2014-07-04T04:56:37.196Z,20.56
2014-07-04T04:57:41.181Z,20.46
2014-07-04T04:58:46.184Z,20.62
2014-07-04T04:59:50.857Z,20.68
2014-07-04T05:00:55.547Z,20.74
2014-07-04T05:02:00.517Z,20.68
2014-07-04T05:03:05.503Z,20.9
2014-07-04T05:04:10.193Z,21.09
2014-07-04T05:05:14.868Z,21.24
2014-07-04T05:06:19.574Z,21.4
2014-07-04T05:07:24.248Z,21.54
2014-07-04T05:08:28.937Z,21.68
2014-07-04T05:09:33.923Z,21.78
2014-07-04T05:10:38.613Z,21.94
2014-07-04T05:11:43.599Z,21.89
2014-07-04T05:12:48.272Z,22
2014-07-04T05:13:52.962Z,21.74
2014-07-04T05:14:57.948Z,21.81
2014-07-04T05:16:02.622Z,21.81
2014-07-04T05:17:07.609Z,21.83
2014-07-04T05:18:12.298Z,22.11
2014-07-04T05:19:16.973Z,22.4
2014-07-04T05:20:22.257Z,22.72
2014-07-04T05:21:26.947Z,22.86
2014-07-04T05:22:31.621Z,22.93
2014-07-04T05:23:36.309Z,22.88
2014-07-04T05:24:41.000Z,22.62
2014-07-04T05:25:45.986Z,22.59
2014-07-04T05:26:50.674Z,22.11
2014-07-04T05:27:55.349Z,21.66
2014-07-04T05:29:00.038Z,21.86
2014-07-04T05:30:05.025Z,22.04
2014-07-04T05:31:10.011Z,21.82
2014-07-04T05:32:14.684Z,21.52
2014-07-04T05:33:19.375Z,21.81
2014-07-04T05:34:24.064Z,21.63
2014-07-04T05:35:28.739Z,21.72
2014-07-04T05:36:33.726Z,21.34
2014-07-04T05:37:37.728Z,21.34
2014-07-04T05:38:42.402Z,21.18
2014-07-04T05:39:47.388Z,20.74
2014-07-04T05:40:52.374Z,21.11
2014-07-04T05:41:57.064Z,21.18
2014-07-04T05:43:02.035Z,21.22
2014-07-04T05:44:06.723Z,21.56
2014-07-04T05:45:11.413Z,21.58
2014-07-04T05:46:16.696Z,21.94
2014-07-04T05:47:21.385Z,22.08
2014-07-04T05:48:26.373Z,22.21
2014-07-04T05:49:31.046Z,21.9
2014-07-04T05:50:35.737Z,21.95
2014-07-04T05:51:40.427Z,21.88
2014-07-04T05:52:45.100Z,21.78
2014-07-04T05:53:50.087Z,21.6
2014-07-04T05:54:54.822Z,21.85
2014-07-04T05:55:58.856Z,21.78
2014-07-04T05:57:03.843Z,21.76
2014-07-04T05:58:08.532Z,21.79
2014-07-04T05:59:13.205Z,21.62
2014-07-04T06:00:17.895Z,21.46
2014-07-04T06:01:22.584Z,21.53
2014-07-04T06:02:27.259Z,21.7
2014-07-04T06:03:32.244Z,22.03
2014-07-04T06:04:36.935Z,22.32
2014-07-04T06:05:41.610Z,22.5
2014-07-04T06:06:46.596Z,22.75
2014-07-04T06:07:51.286Z,23.16
2014-07-04T06:08:56.256Z,23.45
2014-07-04T06:10:00.946Z,23.49
2014-07-04T06:11:05.931Z,24.63
2014-07-04T06:12:10.622Z,25.86
2014-07-04T06:13:15.296Z,27.52
2014-07-04T06:14:19.985Z,27.06
2014-07-04T06:15:24.971Z,27.64
2014-07-04T06:16:29.660Z,29.21
2014-07-04T06:17:34.351Z,29.84
2014-07-04T06:18:39.039Z,30.48
2014-07-04T06:19:44.025Z,29.66
2014-07-04T06:20:48.701Z,29.43
2014-07-04T06:21:53.406Z,30.28
2014-07-04T06:22:58.095Z,29.93
2014-07-04T06:24:03.082Z,29.9
2014-07-04T06:25:08.069Z,28.68
2014-07-04T06:26:13.055Z,28.9
2014-07-04T06:27:17.745Z,30.38
2014-07-04T06:28:22.433Z,30.94
2014-07-04T06:29:27.124Z,31.2
2014-07-04T06:30:31.812Z,31.2
2014-07-04T06:31:36.502Z,30.76
2014-07-04T06:32:41.192Z,31.09
2014-07-04T06:33:45.881Z,30.74
2014-07-04T06:34:50.570Z,30.43
2014-07-04T06:35:55.262Z,30.41
2014-07-04T06:36:59.951Z,30.85
2014-07-04T06:38:04.937Z,30.4
2014-07-04T06:39:09.923Z,29.96
2014-07-04T06:40:14.613Z,28.91
2014-07-04T06:41:19.600Z,28.14
2014-07-04T06:42:24.289Z,27.48
2014-07-04T06:43:28.994Z,26.79
2014-07-04T06:44:33.699Z,26.45
2014-07-04T06:45:38.388Z,26.5
2014-07-04T06:46:43.077Z,26.75
2014-07-04T06:47:47.768Z,26.72
2014-07-04T06:48:52.456Z,26.64
2014-07-04T06:49:57.443Z,26.55
2014-07-04T06:51:02.134Z,26.35
2014-07-04T06:52:07.121Z,26.36
2014-07-04T06:53:11.810Z,26.38
2014-07-04T06:54:16.797Z,26.4
2014-07-04T06:55:21.486Z,26.42
2014-07-04T06:56:26.176Z,26.32
2014-07-04T06:57:30.849Z,26.2
2014-07-04T06:58:35.851Z,25.81
2014-07-04T06:59:40.541Z,25.72
2014-07-04T07:00:45.229Z,25.28
2014-07-04T07:01:50.201Z,25.19
2014-07-04T07:02:54.890Z,25.43
2014-07-04T07:03:59.579Z,25.69
2014-07-04T07:05:04.269Z,25.57
2014-07-04T07:06:08.959Z,25.72
2014-07-04T07:07:13.651Z,25.67
2014-07-04T07:08:18.339Z,25.36
2014-07-04T07:09:23.060Z,24.98
2014-07-04T07:10:27.749Z,24.6
2014-07-04T07:11:32.439Z,24.3
2014-07-04T07:12:37.128Z,24.35
2014-07-04T07:13:42.115Z,23.87
2014-07-04T07:14:47.100Z,24.32
2014-07-04T07:15:51.790Z,24.52
2014-07-04T07:16:56.480Z,24.14
2014-07-04T07:18:01.153Z,24.05
2014-07-04T07:19:06.139Z,24.26
2014-07-04T07:20:10.829Z,24.45
2014-07-04T07:21:15.520Z,24.52
2014-07-04T07:22:20.194Z,24.54
2014-07-04T07:23:25.181Z,24.71
2014-07-04T07:24:29.870Z,24.78
2014-07-04T07:25:34.560Z,25.08
2014-07-04T07:26:39.249Z,25.36
2014-07-04T07:27:43.548Z,25.43
2014-07-04T07:28:48.222Z,25.6
2014-07-04T07:29:52.911Z,25.6
2014-07-04T07:30:56.913Z,25.85
2014-07-04T07:32:01.603Z,26.02
2014-07-04T07:33:06.589Z,26.05
2014-07-04T07:34:11.279Z,26.04
2014-07-04T07:35:15.952Z,26.21
2014-07-04T07:36:20.643Z,26.23
2014-07-04T07:37:25.333Z,26.3
2014-07-04T07:38:30.319Z,26.08
2014-07-04T07:39:35.009Z,26.28
2014-07-04T07:40:39.698Z,26.53
2014-07-04T07:41:44.684Z,25.97
2014-07-04T07:42:49.373Z,26.54
2014-07-04T07:43:54.359Z,26.96
2014-07-04T07:44:59.049Z,26.6
2014-07-04T07:46:03.738Z,26.67
2014-07-04T07:47:08.725Z,26.25
2014-07-04T07:48:13.805Z,26.08
2014-07-04T07:49:18.495Z,25.94
2014-07-04T07:50:23.465Z,25.94
2014-07-04T07:51:28.155Z,26.24
2014-07-04T07:52:33.143Z,26.22
2014-07-04T07:53:37.833Z,26.15
2014-07-04T07:54:42.819Z,26.13
2014-07-04T07:55:47.524Z,26.1
2014-07-04T07:56:52.510Z,26.23
2014-07-04T07:57:57.184Z,26.14
2014-07-04T07:59:01.889Z,26.34
2014-07-04T08:00:06.579Z,26.49
2014-07-04T08:01:11.268Z,26.6
2014-07-04T08:02:15.958Z,26.02
2014-07-04T08:03:20.647Z,26.52
2014-07-04T08:04:25.336Z,26.3
2014-07-04T08:05:30.011Z,26.05
2014-07-04T08:06:34.699Z,26.19
2014-07-04T08:07:39.688Z,26.22
2014-07-04T08:08:44.377Z,26.06
2014-07-04T08:09:49.067Z,25.96
2014-07-04T08:10:53.756Z,26.06
2014-07-04T08:11:58.446Z,26.15
2014-07-04T08:13:03.151Z,26.06
2014-07-04T08:14:07.840Z,25.86
2014-07-04T08:15:12.530Z,25.92
2014-07-04T08:16:17.516Z,25.83
2014-07-04T08:17:22.206Z,25.99
2014-07-04T08:18:26.894Z,25.99
2014-07-04T08:19:31.881Z,26.1
2014-07-04T08:20:36.868Z,26.21
2014-07-04T08:21:41.853Z,26.35
2014-07-04T08:22:46.545Z,26.4
2014-07-04T08:23:51.234Z,26.7
2014-07-04T08:24:55.908Z,26.63
2014-07-04T08:26:00.613Z,26.48
2014-07-04T08:27:05.287Z,26.39
2014-07-04T08:28:10.273Z,26.55
2014-07-04T08:29:14.963Z,26.86
2014-07-04T08:30:19.651Z,27.27
2014-07-04T08:31:24.341Z,27.28
2014-07-04T08:32:29.327Z,27.36
2014-07-04T08:33:34.017Z,27.41
2014-07-04T08:34:39.003Z,27.64
2014-07-04T08:35:43.693Z,27.44
2014-07-04T08:36:48.681Z,27.62
2014-07-04T08:37:53.668Z,27.65
2014-07-04T08:38:58.357Z,27.47
2014-07-04T08:40:03.046Z,27.53
2014-07-04T08:41:07.736Z,27.7
2014-07-04T08:42:12.722Z,28.39
2014-07-04T08:43:17.411Z,28.73
2014-07-04T08:44:22.100Z,28.22
2014-07-04T08:45:26.791Z,27.67
2014-07-04T08:46:31.480Z,27.82
2014-07-04T08:47:36.153Z,27.79
2014-07-04T08:48:40.843Z,27.81
2014-07-04T08:49:45.548Z,28.08
2014-07-04T08:50:50.222Z,27.67
2014-07-04T08:51:54.929Z,27.92
2014-07-04T08:52:59.915Z,27.91
2014-07-04T08:54:04.605Z,28.18
2014-07-04T08:55:09.294Z,28.31
2014-07-04T08:56:13.984Z,27.62
2014-07-04T08:57:18.672Z,27.7
2014-07-04T08:58:23.660Z,27.9
2014-07-04T08:59:28.333Z,27.95
2014-07-04T09:00:33.038Z,28.11
2014-07-04T09:01:37.727Z,28.33
2014-07-04T09:02:42.432Z,28.19
2014-07-04T09:03:47.419Z,28.18
2014-07-04T09:04:52.109Z,28.16
2014-07-04T09:05:57.112Z,28.45
2014-07-04T09:07:01.786Z,28.36
2014-07-04T09:08:06.491Z,28.28
2014-07-04T09:09:11.181Z,28.03
2014-07-04T09:10:15.870Z,28.18
2014-07-04T09:11:20.559Z,28.74
2014-07-04T09:12:25.546Z,28.66
2014-07-04T09:13:30.235Z,28.44
2014-07-04T09:14:34.925Z,28.82
2014-07-04T09:15:39.614Z,28.54
2014-07-04T09:16:44.303Z,28.24
2014-07-04T09:17:48.977Z,28.28
2014-07-04T09:18:53.682Z,28.12
2014-07-04T09:19:58.373Z,28.56
2014-07-04T09:21:03.360Z,28.54
2014-07-04T09:22:08.049Z,28.02
2014-07-04T09:23:12.739Z,28.15
2014-07-04T09:24:17.724Z,28.28
2014-07-04T09:25:22.711Z,28.62
2014-07-04T09:26:27.697Z,28.67
2014-07-04T09:27:32.386Z,28.38
2014-07-04T09:28:37.076Z,28.56
2014-07-04T09:29:41.765Z,29.03
2014-07-04T09:30:46.455Z,29.01
2014-07-04T09:31:51.144Z,28.76
2014-07-04T09:32:55.836Z,28.88
2014-07-04T09:34:00.525Z,28.45
2014-07-04T09:35:04.527Z,28.71
2014-07-04T09:36:09.217Z,28.89
2014-07-04T09:37:13.905Z,29.24
2014-07-04T09:38:18.595Z,28.64
2014-07-04T09:39:23.269Z,28.49
2014-07-04T09:40:28.272Z,28.44
2014-07-04T09:41:32.960Z,28.48
2014-07-04T09:42:37.650Z,28.9
2014-07-04T09:43:42.339Z,29.14
2014-07-04T09:44:47.029Z,28.66
2014-07-04T09:45:51.703Z,28.16
2014-07-04T09:46:56.706Z,28.09
2014-07-04T09:48:01.395Z,28.31
2014-07-04T09:49:06.383Z,28.18
2014-07-04T09:50:11.071Z,28.43
2014-07-04T09:51:15.761Z,28.55
2014-07-04T09:52:20.451Z,28.42
2014-07-04T09:53:25.141Z,28.59
2014-07-04T09:54:29.830Z,28.45
2014-07-04T09:55:34.520Z,28.4
2014-07-04T09:56:39.208Z,28.78
2014-07-04T09:57:43.898Z,29.05
2014-07-04T09:58:49.181Z,29.12
2014-07-04T09:59:53.870Z,29.34
2014-07-04T10:00:58.560Z,29.47
2014-07-04T10:02:03.251Z,29.53
2014-07-04T10:03:07.941Z,29.55
2014-07-04T10:04:12.630Z,29.43
2014-07-04T10:05:17.320Z,29.19
2014-07-04T10:06:22.009Z,29.71
2014-07-04T10:07:26.698Z,29.95
2014-07-04T10:08:31.684Z,30.05
2014-07-04T10:09:36.374Z,29.8
2014-07-04T10:10:41.064Z,29.56
2014-07-04T10:11:45.753Z,29.58
2014-07-04T10:12:50.442Z,29.25
2014-07-04T10:13:55.132Z,29.44
2014-07-04T10:14:59.821Z,29.22
2014-07-04T10:16:04.512Z,29.26
2014-07-04T10:17:09.202Z,29.4
2014-07-04T10:18:13.891Z,29
2014-07-04T10:19:18.580Z,28.93
2014-07-04T10:20:23.270Z,29.12
2014-07-04T10:21:27.959Z,29.25
2014-07-04T10:22:32.649Z,29.2
2014-07-04T10:23:37.339Z,29.31
2014-07-04T10:24:42.028Z,29.72
2014-07-04T10:25:46.717Z,29.94
2014-07-04T10:26:51.407Z,29.69
2014-07-04T10:27:56.096Z,30.03
2014-07-04T10:29:00.786Z,30.1
2014-07-04T10:30:05.773Z,29.99
2014-07-04T10:31:10.463Z,29.89
2014-07-04T10:32:15.152Z,29.92
2014-07-04T10:33:19.842Z,29.72
2014-07-04T10:34:24.544Z,29.45
2014-07-04T10:35:29.274Z,29.11
2014-07-04T10:36:34.003Z,29.15
2014-07-04T10:37:38.733Z,29
2014-07-04T10:38:43.462Z,29.5
2014-07-04T10:39:48.480Z,29.89
2014-07-04T10:40:53.480Z,29.99
2014-07-04T10:41:58.481Z,30.2
2014-07-04T10:43:03.185Z,30.3
2014-07-04T10:44:07.917Z,30.06
2014-07-04T10:45:12.611Z,29.96
2014-07-04T10:46:17.321Z,29.87
2014-07-04T10:47:22.016Z,30.38
2014-07-04T10:48:26.710Z,30.41
2014-07-04T10:49:31.701Z,30.81
2014-07-04T10:50:36.392Z,31.1
2014-07-04T10:51:41.083Z,30.78
2014-07-04T10:52:45.774Z,30.72
2014-07-04T10:53:50.466Z,30.84
2014-07-04T10:54:55.453Z,30.76
2014-07-04T10:56:00.144Z,30.77
2014-07-04T10:57:05.131Z,30.73
2014-07-04T10:58:09.840Z,30.36
2014-07-04T10:59:14.530Z,29.88
2014-07-04T11:00:19.219Z,29.73
2014-07-04T11:01:23.925Z,29.81
2014-07-04T11:02:28.630Z,30.51
2014-07-04T11:03:33.320Z,30.24
2014-07-04T11:04:38.009Z,30.65
2014-07-04T11:05:42.699Z,30.33
2014-07-04T11:06:47.388Z,30.38
2014-07-04T11:07:52.078Z,29.98
2014-07-04T11:08:57.064Z,30.26
2014-07-04T11:10:01.754Z,30.19
2014-07-04T11:11:06.739Z,30.52
2014-07-04T11:12:11.446Z,30.06
2014-07-04T11:13:16.137Z,30.32
2014-07-04T11:14:20.826Z,30.56
2014-07-04T11:15:25.515Z,30.77
2014-07-04T11:16:30.204Z,30.69
2014-07-04T11:17:35.191Z,30.74
2014-07-04T11:18:40.177Z,30.18
2014-07-04T11:19:44.867Z,30.5
2014-07-04T11:20:49.572Z,30.39
2014-07-04T11:21:54.261Z,30.44
2014-07-04T11:22:58.951Z,30.23
2014-07-04T11:24:03.640Z,30.32
2014-07-04T11:25:08.329Z,30.56
2014-07-04T11:26:13.316Z,30.69
2014-07-04T11:27:18.303Z,30.87
2014-07-04T11:28:22.994Z,30.45
2014-07-04T11:29:27.683Z,30.64
2014-07-04T11:30:32.373Z,30.62
2014-07-04T11:31:37.062Z,30.32
2014-07-04T11:32:41.752Z,30.64
2014-07-04T11:33:46.441Z,30.97
2014-07-04T11:34:51.131Z,31.23
2014-07-04T11:35:55.820Z,31.08
2014-07-04T11:37:00.511Z,31.33
2014-07-04T11:38:05.199Z,30.91
2014-07-04T11:39:09.890Z,30.64
2014-07-04T11:40:14.578Z,30.6
2014-07-04T11:41:19.269Z,30.83
2014-07-04T11:42:23.957Z,31.06
2014-07-04T11:43:28.945Z,31.31
2014-07-04T11:44:33.633Z,31.32
2014-07-04T11:45:38.323Z,31.06
2014-07-04T11:46:43.012Z,31.36
2014-07-04T11:47:48.014Z,31.53
2014-07-04T11:48:52.704Z,31.67
2014-07-04T11:49:57.393Z,31.67
2014-07-04T11:51:02.084Z,31.7
2014-07-04T11:52:06.773Z,31.91
2014-07-04T11:53:11.463Z,32.08
2014-07-04T11:54:16.449Z,32.23
2014-07-04T11:55:21.436Z,32.03
2014-07-04T11:56:26.126Z,31.61
2014-07-04T11:57:30.831Z,31.44
2014-07-04T11:58:35.520Z,31.48
2014-07-04T11:59:40.209Z,31.07
2014-07-04T12:00:44.914Z,31.3
2014-07-04T12:01:49.604Z,31.54
2014-07-04T12:02:54.606Z,31.8
2014-07-04T12:03:59.295Z,31.62
2014-07-04T12:05:03.986Z,31.62
2014-07-04T12:06:08.675Z,31.73
2014-07-04T12:07:13.677Z,31.59
2014-07-04T12:08:18.664Z,31.53
2014-07-04T12:09:23.353Z,31.41
2014-07-04T12:10:28.044Z,31.45
2014-07-04T12:11:32.749Z,31.3
2014-07-04T12:12:37.735Z,31
2014-07-04T12:13:42.721Z,31.35
2014-07-04T12:14:47.708Z,31.6
2014-07-04T12:15:52.444Z,31.13
2014-07-04T12:16:57.148Z,31.42
2014-07-04T12:18:01.838Z,31.52
2014-07-04T12:19:06.527Z,31.52
2014-07-04T12:20:11.233Z,31.7
2014-07-04T12:21:15.922Z,31.95
2014-07-04T12:22:20.628Z,31.76
2014-07-04T12:23:25.318Z,31.85
2014-07-04T12:24:30.305Z,31.6
2014-07-04T12:25:35.290Z,31.58
2014-07-04T12:26:39.981Z,31.54
2014-07-04T12:27:44.669Z,31.3
2014-07-04T12:28:49.360Z,31.31
2014-07-04T12:29:54.049Z,31.48
2014-07-04T12:30:59.036Z,31.34
2014-07-04T12:32:03.725Z,31.23
2014-07-04T12:33:08.415Z,31.39
2014-07-04T12:34:13.104Z,31.3
2014-07-04T12:35:17.809Z,31.31
2014-07-04T12:36:22.500Z,31.38
2014-07-04T12:37:27.188Z,31.38
2014-07-04T12:38:32.176Z,31.36
2014-07-04T12:39:36.864Z,31.47
2014-07-04T12:40:41.569Z,31.56
2014-07-04T12:41:46.259Z,31.92
2014-07-04T12:42:51.245Z,31.86
2014-07-04T12:43:55.951Z,31.82
2014-07-04T12:45:00.641Z,31.57
2014-07-04T12:46:05.330Z,31.36
2014-07-04T12:47:10.317Z,31.82
2014-07-04T12:48:15.006Z,31.58
2014-07-04T12:49:19.711Z,31.65
2014-07-04T12:50:24.401Z,31.43
2014-07-04T12:51:28.403Z,31.44
2014-07-04T12:52:33.092Z,31.6
2014-07-04T12:53:37.783Z,31.73
2014-07-04T12:54:42.487Z,31.76
2014-07-04T12:55:47.177Z,31.53
2014-07-04T12:56:51.867Z,31.36
2014-07-04T12:57:56.557Z,32.03
2014-07-04T12:59:01.246Z,31.65
2014-07-04T13:00:05.936Z,31.28
2014-07-04T13:01:10.625Z,31.31
2014-07-04T13:02:15.315Z,31.43
2014-07-04T13:03:20.020Z,31.27
2014-07-04T13:04:24.709Z,31.46
2014-07-04T13:05:29.399Z,31.86
2014-07-04T13:06:34.088Z,31.71
2014-07-04T13:07:39.090Z,32.05
2014-07-04T13:08:43.780Z,31.47
2014-07-04T13:09:48.469Z,31.15
2014-07-04T13:10:53.174Z,31.3
2014-07-04T13:11:57.880Z,31.56
2014-07-04T13:13:02.570Z,31.45
2014-07-04T13:14:07.258Z,31.33
2014-07-04T13:15:12.246Z,31.62
2014-07-04T13:16:16.950Z,32.04
2014-07-04T13:17:21.640Z,32.14
2014-07-04T13:18:26.330Z,31.54
2014-07-04T13:19:31.035Z,31.33
2014-07-04T13:20:36.021Z,31.47
2014-07-04T13:21:40.727Z,31.17
2014-07-04T13:22:45.714Z,31.24
2014-07-04T13:23:50.418Z,31.4
2014-07-04T13:24:55.404Z,31.64
2014-07-04T13:26:00.095Z,31.8
2014-07-04T13:27:04.800Z,31.82
2014-07-04T13:28:09.490Z,31.87
2014-07-04T13:29:14.179Z,31.69
2014-07-04T13:30:19.181Z,31.4
2014-07-04T13:31:24.167Z,31.68
2014-07-04T13:32:28.857Z,31.46
2014-07-04T13:33:33.562Z,31.76
2014-07-04T13:34:38.548Z,31.51
2014-07-04T13:35:43.254Z,31.1
2014-07-04T13:36:48.241Z,30.91
2014-07-04T13:37:52.946Z,31.26
2014-07-04T13:38:57.948Z,31.48
2014-07-04T13:40:02.637Z,31.56
2014-07-04T13:41:07.327Z,31.53
2014-07-04T13:42:12.017Z,31.75
2014-07-04T13:43:16.706Z,31.89
2014-07-04T13:44:21.396Z,31.4
2014-07-04T13:45:26.085Z,30.96
2014-07-04T13:46:30.775Z,31
2014-07-04T13:47:35.464Z,31.2
2014-07-04T13:48:40.450Z,31.43
2014-07-04T13:49:45.140Z,31.52
2014-07-04T13:50:49.829Z,31.49
2014-07-04T13:51:54.518Z,31.16
2014-07-04T13:52:59.224Z,31.22
2014-07-04T13:54:03.914Z,31.33
2014-07-04T13:55:08.603Z,31.34
2014-07-04T13:56:13.293Z,31.72
2014-07-04T13:57:18.280Z,31.98
2014-07-04T13:58:22.968Z,31.77